sensor_id;sensor_type;location;lat;lon;timestamp;pressure;altitude;pressure_sealevel;temperature;humidity
13934;BME280;7039;52.168;9.866;2023-07-24T00:01:18;99545.94;;;21.01;79.87
13934;BME280;7039;52.168;9.866;2023-07-24T00:03:45;99540.81;;;20.99;79.65
13934;BME280;7039;52.168;9.866;2023-07-24T00:06:11;99537.81;;;20.78;80.43
13934;BME280;7039;52.168;9.866;2023-07-24T00:08:38;99532.53;;;20.70;80.86
13934;BME280;7039;52.168;9.866;2023-07-24T00:11:07;99529.53;;;20.97;79.50
13934;BME280;7039;52.168;9.866;2023-07-24T00:13:33;99522.25;;;20.83;79.97
13934;BME280;7039;52.168;9.866;2023-07-24T00:16:00;99519.44;;;20.60;80.63
13934;BME280;7039;52.168;9.866;2023-07-24T00:18:27;99521.91;;;20.61;80.97
13934;BME280;7039;52.168;9.866;2023-07-24T00:20:54;99524.72;;;20.68;80.52
13934;BME280;7039;52.168;9.866;2023-07-24T00:23:20;99527.72;;;20.73;80.25
13934;BME280;7039;52.168;9.866;2023-07-24T00:25:47;99524.22;;;20.73;80.31
13934;BME280;7039;52.168;9.866;2023-07-24T00:28:13;99510.00;;;20.74;80.26
13934;BME280;7039;52.168;9.866;2023-07-24T00:30:40;99528.88;;;20.95;79.64
13934;BME280;7039;52.168;9.866;2023-07-24T00:33:06;99511.16;;;20.71;80.81
13934;BME280;7039;52.168;9.866;2023-07-24T00:35:34;99511.47;;;20.84;79.94
13934;BME280;7039;52.168;9.866;2023-07-24T00:38:00;99509.16;;;20.81;80.06
13934;BME280;7039;52.168;9.866;2023-07-24T00:40:27;99497.72;;;20.89;79.43
13934;BME280;7039;52.168;9.866;2023-07-24T00:42:53;99501.06;;;20.83;79.84
13934;BME280;7039;52.168;9.866;2023-07-24T00:45:21;99492.94;;;20.76;79.77
13934;BME280;7039;52.168;9.866;2023-07-24T00:47:47;99495.75;;;20.58;80.44
13934;BME280;7039;52.168;9.866;2023-07-24T00:50:14;99496.25;;;20.70;80.05
13934;BME280;7039;52.168;9.866;2023-07-24T00:52:43;99510.97;;;20.73;79.82
13934;BME280;7039;52.168;9.866;2023-07-24T00:55:10;99521.91;;;20.86;79.41
13934;BME280;7039;52.168;9.866;2023-07-24T00:57:39;99533.34;;;20.95;78.87
13934;BME280;7039;52.168;9.866;2023-07-24T01:00:07;99535.66;;;21.06;78.48
13934;BME280;7039;52.168;9.866;2023-07-24T01:02:34;99533.31;;;21.11;77.95
13934;BME280;7039;52.168;9.866;2023-07-24T01:05:01;99529.03;;;20.94;78.72
13934;BME280;7039;52.168;9.866;2023-07-24T01:07:28;99521.06;;;21.02;78.10
13934;BME280;7039;52.168;9.866;2023-07-24T01:09:56;99527.38;;;20.84;78.92
13934;BME280;7039;52.168;9.866;2023-07-24T01:12:27;99523.59;;;20.79;79.04
13934;BME280;7039;52.168;9.866;2023-07-24T01:15:02;99506.34;;;20.83;78.92
13934;BME280;7039;52.168;9.866;2023-07-24T01:17:30;99506.84;;;20.70;79.05
13934;BME280;7039;52.168;9.866;2023-07-24T01:20:01;99511.31;;;20.78;79.00
13934;BME280;7039;52.168;9.866;2023-07-24T01:22:38;99512.50;;;20.92;78.52
13934;BME280;7039;52.168;9.866;2023-07-24T01:25:10;99514.78;;;20.95;78.10
13934;BME280;7039;52.168;9.866;2023-07-24T01:27:45;99515.13;;;20.92;78.69
13934;BME280;7039;52.168;9.866;2023-07-24T01:30:13;99512.94;;;21.12;77.88
13934;BME280;7039;52.168;9.866;2023-07-24T01:32:39;99519.09;;;20.88;78.50
13934;BME280;7039;52.168;9.866;2023-07-24T01:35:06;99508.47;;;21.04;78.32
13934;BME280;7039;52.168;9.866;2023-07-24T01:37:34;99510.00;;;20.98;78.55
13934;BME280;7039;52.168;9.866;2023-07-24T01:40:00;99496.75;;;20.98;78.54
13934;BME280;7039;52.168;9.866;2023-07-24T01:42:28;99499.34;;;21.15;77.91
13934;BME280;7039;52.168;9.866;2023-07-24T01:44:56;99504.16;;;21.11;78.21
13934;BME280;7039;52.168;9.866;2023-07-24T01:47:23;99494.25;;;20.72;78.92
13934;BME280;7039;52.168;9.866;2023-07-24T01:49:49;99493.94;;;20.92;78.21
13934;BME280;7039;52.168;9.866;2023-07-24T01:52:16;99497.06;;;21.03;77.43
13934;BME280;7039;52.168;9.866;2023-07-24T01:54:42;99502.69;;;21.00;77.60
13934;BME280;7039;52.168;9.866;2023-07-24T01:57:09;99507.69;;;20.79;78.53
13934;BME280;7039;52.168;9.866;2023-07-24T01:59:35;99505.34;;;20.84;78.28
13934;BME280;7039;52.168;9.866;2023-07-24T02:02:03;99500.38;;;20.89;78.40
13934;BME280;7039;52.168;9.866;2023-07-24T02:04:30;99503.69;;;20.75;78.71
13934;BME280;7039;52.168;9.866;2023-07-24T02:06:56;99500.06;;;20.76;78.78
13934;BME280;7039;52.168;9.866;2023-07-24T02:09:23;99492.28;;;20.66;79.41
13934;BME280;7039;52.168;9.866;2023-07-24T02:11:49;99486.81;;;20.68;79.42
13934;BME280;7039;52.168;9.866;2023-07-24T02:14:17;99494.09;;;20.57;80.00
13934;BME280;7039;52.168;9.866;2023-07-24T02:16:45;99489.97;;;20.63;79.45
13934;BME280;7039;52.168;9.866;2023-07-24T02:19:13;99491.59;;;20.56;79.99
13934;BME280;7039;52.168;9.866;2023-07-24T02:21:39;99492.94;;;20.68;79.17
13934;BME280;7039;52.168;9.866;2023-07-24T02:24:06;99491.06;;;20.36;80.62
13934;BME280;7039;52.168;9.866;2023-07-24T02:26:33;99479.47;;;20.37;80.77
13934;BME280;7039;52.168;9.866;2023-07-24T02:28:59;99488.06;;;20.22;81.28
13934;BME280;7039;52.168;9.866;2023-07-24T02:31:26;99478.84;;;20.35;80.95
13934;BME280;7039;52.168;9.866;2023-07-24T02:33:52;99491.09;;;20.44;80.62
13934;BME280;7039;52.168;9.866;2023-07-24T02:36:20;99486.28;;;20.31;81.33
13934;BME280;7039;52.168;9.866;2023-07-24T02:38:46;99493.22;;;20.32;80.69
13934;BME280;7039;52.168;9.866;2023-07-24T02:41:13;99482.13;;;20.20;81.40
13934;BME280;7039;52.168;9.866;2023-07-24T02:43:39;99482.13;;;20.20;81.44
13934;BME280;7039;52.168;9.866;2023-07-24T02:46:06;99491.72;;;20.21;81.22
13934;BME280;7039;52.168;9.866;2023-07-24T02:48:32;99500.81;;;20.11;81.71
13934;BME280;7039;52.168;9.866;2023-07-24T02:50:58;99493.69;;;20.03;82.31
13934;BME280;7039;52.168;9.866;2023-07-24T02:53:26;99485.25;;;20.16;81.88
13934;BME280;7039;52.168;9.866;2023-07-24T02:55:53;99489.03;;;20.05;82.17
13934;BME280;7039;52.168;9.866;2023-07-24T02:58:19;99489.22;;;20.12;81.56
13934;BME280;7039;52.168;9.866;2023-07-24T03:00:45;99484.59;;;20.06;81.78
13934;BME280;7039;52.168;9.866;2023-07-24T03:03:12;99483.88;;;19.95;82.28
13934;BME280;7039;52.168;9.866;2023-07-24T03:05:38;99477.75;;;19.95;82.24
13934;BME280;7039;52.168;9.866;2023-07-24T03:08:05;99481.38;;;19.86;82.56
13934;BME280;7039;52.168;9.866;2023-07-24T03:10:33;99477.91;;;19.85;82.79
13934;BME280;7039;52.168;9.866;2023-07-24T03:12:59;99470.47;;;19.89;82.57
13934;BME280;7039;52.168;9.866;2023-07-24T03:15:25;99470.66;;;19.95;82.17
13934;BME280;7039;52.168;9.866;2023-07-24T03:17:52;99472.94;;;19.82;82.75
13934;BME280;7039;52.168;9.866;2023-07-24T03:20:20;99463.31;;;19.73;83.23
13934;BME280;7039;52.168;9.866;2023-07-24T03:22:46;99472.25;;;19.80;82.84
13934;BME280;7039;52.168;9.866;2023-07-24T03:25:13;99466.97;;;19.80;82.83
13934;BME280;7039;52.168;9.866;2023-07-24T03:27:41;99475.78;;;19.97;82.35
13934;BME280;7039;52.168;9.866;2023-07-24T03:30:07;99470.94;;;19.76;82.89
13934;BME280;7039;52.168;9.866;2023-07-24T03:32:35;99466.81;;;19.81;82.92
13934;BME280;7039;52.168;9.866;2023-07-24T03:35:02;99475.09;;;19.87;82.63
13934;BME280;7039;52.168;9.866;2023-07-24T03:37:28;99469.94;;;19.77;82.80
13934;BME280;7039;52.168;9.866;2023-07-24T03:39:55;99471.13;;;19.91;82.23
13934;BME280;7039;52.168;9.866;2023-07-24T03:42:25;99464.00;;;19.91;82.21
13934;BME280;7039;52.168;9.866;2023-07-24T03:44:54;99463.88;;;19.93;82.04
13934;BME280;7039;52.168;9.866;2023-07-24T03:47:21;99460.09;;;20.03;81.33
13934;BME280;7039;52.168;9.866;2023-07-24T03:49:47;99444.88;;;20.14;80.92
13934;BME280;7039;52.168;9.866;2023-07-24T03:52:13;99447.69;;;20.12;80.94
13934;BME280;7039;52.168;9.866;2023-07-24T03:54:40;99453.81;;;20.21;80.51
13934;BME280;7039;52.168;9.866;2023-07-24T03:57:06;99446.34;;;20.16;80.57
13934;BME280;7039;52.168;9.866;2023-07-24T03:59:33;99451.81;;;20.23;80.14
13934;BME280;7039;52.168;9.866;2023-07-24T04:02:01;99447.03;;;20.18;79.98
13934;BME280;7039;52.168;9.866;2023-07-24T04:04:27;99452.84;;;20.22;80.15
13934;BME280;7039;52.168;9.866;2023-07-24T04:06:54;99450.03;;;20.23;80.21
13934;BME280;7039;52.168;9.866;2023-07-24T04:09:20;99446.88;;;20.28;79.74
13934;BME280;7039;52.168;9.866;2023-07-24T04:11:47;99442.25;;;20.22;80.01
13934;BME280;7039;52.168;9.866;2023-07-24T04:14:13;99437.75;;;20.22;80.34
13934;BME280;7039;52.168;9.866;2023-07-24T04:16:40;99430.13;;;19.95;81.51
13934;BME280;7039;52.168;9.866;2023-07-24T04:19:07;99428.16;;;20.13;80.81
13934;BME280;7039;52.168;9.866;2023-07-24T04:21:34;99425.16;;;19.92;81.37
13934;BME280;7039;52.168;9.866;2023-07-24T04:24:00;99427.50;;;20.03;80.98
13934;BME280;7039;52.168;9.866;2023-07-24T04:26:27;99432.81;;;20.19;80.01
13934;BME280;7039;52.168;9.866;2023-07-24T04:28:54;99435.78;;;20.08;81.26
13934;BME280;7039;52.168;9.866;2023-07-24T04:31:21;99428.53;;;20.35;80.14
13934;BME280;7039;52.168;9.866;2023-07-24T04:33:47;99425.19;;;20.41;79.86
13934;BME280;7039;52.168;9.866;2023-07-24T04:36:15;99438.44;;;20.49;79.43
13934;BME280;7039;52.168;9.866;2023-07-24T04:38:41;99420.38;;;20.36;80.12
13934;BME280;7039;52.168;9.866;2023-07-24T04:41:08;99412.28;;;20.38;79.97
13934;BME280;7039;52.168;9.866;2023-07-24T04:43:34;99412.78;;;20.50;79.09
13934;BME280;7039;52.168;9.866;2023-07-24T04:46:00;99412.63;;;20.59;79.39
13934;BME280;7039;52.168;9.866;2023-07-24T04:48:28;99415.28;;;20.68;78.96
13934;BME280;7039;52.168;9.866;2023-07-24T04:50:55;99405.31;;;20.78;78.30
13934;BME280;7039;52.168;9.866;2023-07-24T04:53:23;99398.19;;;20.70;78.73
13934;BME280;7039;52.168;9.866;2023-07-24T04:55:49;99387.25;;;20.81;77.98
13934;BME280;7039;52.168;9.866;2023-07-24T04:58:16;99393.88;;;20.85;78.23
13934;BME280;7039;52.168;9.866;2023-07-24T05:00:42;99379.75;;;21.01;78.47
13934;BME280;7039;52.168;9.866;2023-07-24T05:03:09;99366.94;;;21.05;78.01
13934;BME280;7039;52.168;9.866;2023-07-24T05:05:36;99382.25;;;21.34;77.26
13934;BME280;7039;52.168;9.866;2023-07-24T05:08:03;99369.84;;;21.35;77.69
13934;BME280;7039;52.168;9.866;2023-07-24T05:10:34;99367.84;;;21.68;76.64
13934;BME280;7039;52.168;9.866;2023-07-24T05:13:01;99363.84;;;21.72;76.11
13934;BME280;7039;52.168;9.866;2023-07-24T05:15:27;99352.44;;;21.86;75.20
13934;BME280;7039;52.168;9.866;2023-07-24T05:17:53;99354.94;;;21.88;75.10
13934;BME280;7039;52.168;9.866;2023-07-24T05:20:20;99359.06;;;21.67;75.87
13934;BME280;7039;52.168;9.866;2023-07-24T05:22:47;99350.16;;;21.60;75.88
13934;BME280;7039;52.168;9.866;2023-07-24T05:25:13;99355.06;;;22.09;74.55
13934;BME280;7039;52.168;9.866;2023-07-24T05:27:41;99358.31;;;22.20;73.89
13934;BME280;7039;52.168;9.866;2023-07-24T05:30:07;99355.69;;;21.74;75.34
13934;BME280;7039;52.168;9.866;2023-07-24T05:32:34;99364.53;;;21.66;75.02
13934;BME280;7039;52.168;9.866;2023-07-24T05:35:00;99355.91;;;21.64;75.57
13934;BME280;7039;52.168;9.866;2023-07-24T05:37:27;99359.22;;;21.35;77.10
13934;BME280;7039;52.168;9.866;2023-07-24T05:39:53;99371.47;;;21.36;76.75
13934;BME280;7039;52.168;9.866;2023-07-24T05:42:20;99359.38;;;21.33;76.89
13934;BME280;7039;52.168;9.866;2023-07-24T05:44:47;99346.59;;;21.05;78.05
13934;BME280;7039;52.168;9.866;2023-07-24T05:47:14;99346.78;;;20.96;78.14
13934;BME280;7039;52.168;9.866;2023-07-24T05:49:40;99356.81;;;21.17;78.12
13934;BME280;7039;52.168;9.866;2023-07-24T05:52:07;99348.44;;;20.97;78.85
13934;BME280;7039;52.168;9.866;2023-07-24T05:54:33;99348.66;;;20.87;80.21
13934;BME280;7039;52.168;9.866;2023-07-24T05:57:00;99346.88;;;20.71;80.70
13934;BME280;7039;52.168;9.866;2023-07-24T05:59:26;99339.59;;;20.65;80.86
13934;BME280;7039;52.168;9.866;2023-07-24T06:01:54;99340.69;;;20.87;80.06
13934;BME280;7039;52.168;9.866;2023-07-24T06:04:20;99339.03;;;20.78;80.04
13934;BME280;7039;52.168;9.866;2023-07-24T06:06:47;99343.59;;;21.00;78.99
13934;BME280;7039;52.168;9.866;2023-07-24T06:09:13;99343.88;;;21.14;78.34
13934;BME280;7039;52.168;9.866;2023-07-24T06:11:40;99338.91;;;21.19;78.10
13934;BME280;7039;52.168;9.866;2023-07-24T06:14:06;99337.03;;;21.27;78.06
13934;BME280;7039;52.168;9.866;2023-07-24T06:16:33;99331.84;;;21.03;78.69
13934;BME280;7039;52.168;9.866;2023-07-24T06:19:00;99334.00;;;21.08;78.81
13934;BME280;7039;52.168;9.866;2023-07-24T06:21:27;99331.25;;;21.24;78.15
13934;BME280;7039;52.168;9.866;2023-07-24T06:23:53;99329.25;;;21.26;78.02
13934;BME280;7039;52.168;9.866;2023-07-24T06:26:20;99332.97;;;21.48;77.25
13934;BME280;7039;52.168;9.866;2023-07-24T06:28:46;99317.50;;;21.98;75.15
13934;BME280;7039;52.168;9.866;2023-07-24T06:31:13;99322.78;;;22.21;74.50
13934;BME280;7039;52.168;9.866;2023-07-24T06:33:39;99316.25;;;22.08;74.40
13934;BME280;7039;52.168;9.866;2023-07-24T06:36:10;99318.25;;;22.29;74.44
13934;BME280;7039;52.168;9.866;2023-07-24T06:38:36;99312.88;;;22.38;74.02
13934;BME280;7039;52.168;9.866;2023-07-24T06:41:02;99305.28;;;22.35;74.11
13934;BME280;7039;52.168;9.866;2023-07-24T06:43:29;99308.44;;;22.30;73.97
13934;BME280;7039;52.168;9.866;2023-07-24T06:45:55;99309.47;;;22.59;73.56
13934;BME280;7039;52.168;9.866;2023-07-24T06:48:22;99297.63;;;22.31;73.63
13934;BME280;7039;52.168;9.866;2023-07-24T06:50:48;99302.41;;;22.21;73.71
13934;BME280;7039;52.168;9.866;2023-07-24T06:53:16;99308.19;;;22.55;73.18
13934;BME280;7039;52.168;9.866;2023-07-24T06:55:42;99304.81;;;22.08;73.84
13934;BME280;7039;52.168;9.866;2023-07-24T06:58:09;99301.63;;;22.13;73.77
13934;BME280;7039;52.168;9.866;2023-07-24T07:00:35;99303.66;;;22.25;73.38
13934;BME280;7039;52.168;9.866;2023-07-24T07:03:02;99307.38;;;22.39;73.04
13934;BME280;7039;52.168;9.866;2023-07-24T07:05:28;99307.66;;;22.44;73.26
13934;BME280;7039;52.168;9.866;2023-07-24T07:07:55;99307.28;;;22.47;72.52
13934;BME280;7039;52.168;9.866;2023-07-24T07:10:23;99300.94;;;22.34;72.96
13934;BME280;7039;52.168;9.866;2023-07-24T07:12:49;99294.72;;;22.41;72.59
13934;BME280;7039;52.168;9.866;2023-07-24T07:15:16;99296.81;;;22.31;72.83
13934;BME280;7039;52.168;9.866;2023-07-24T07:17:41;99295.00;;;22.46;72.40
13934;BME280;7039;52.168;9.866;2023-07-24T07:20:08;99295.25;;;22.66;72.17
13934;BME280;7039;52.168;9.866;2023-07-24T07:22:35;99291.34;;;22.33;72.53
13934;BME280;7039;52.168;9.866;2023-07-24T07:25:01;99284.34;;;22.31;72.42
13934;BME280;7039;52.168;9.866;2023-07-24T07:27:29;99290.25;;;22.71;71.52
13934;BME280;7039;52.168;9.866;2023-07-24T07:29:56;99291.69;;;22.59;71.99
13934;BME280;7039;52.168;9.866;2023-07-24T07:32:22;99291.66;;;22.89;70.91
13934;BME280;7039;52.168;9.866;2023-07-24T07:34:49;99284.59;;;23.26;70.26
13934;BME280;7039;52.168;9.866;2023-07-24T07:37:15;99284.97;;;23.44;70.46
13934;BME280;7039;52.168;9.866;2023-07-24T07:39:41;99272.44;;;23.02;69.82
13934;BME280;7039;52.168;9.866;2023-07-24T07:42:08;99272.28;;;23.68;69.22
13934;BME280;7039;52.168;9.866;2023-07-24T07:44:36;99265.31;;;23.45;68.67
13934;BME280;7039;52.168;9.866;2023-07-24T07:47:02;99273.38;;;23.30;68.69
13934;BME280;7039;52.168;9.866;2023-07-24T07:49:29;99273.00;;;23.55;69.19
13934;BME280;7039;52.168;9.866;2023-07-24T07:51:55;99265.44;;;23.59;68.17
13934;BME280;7039;52.168;9.866;2023-07-24T07:54:22;99258.94;;;23.40;68.49
13934;BME280;7039;52.168;9.866;2023-07-24T07:56:48;99269.81;;;24.16;66.96
13934;BME280;7039;52.168;9.866;2023-07-24T07:59:15;99260.34;;;24.07;66.42
13934;BME280;7039;52.168;9.866;2023-07-24T08:01:42;99262.78;;;24.36;66.07
13934;BME280;7039;52.168;9.866;2023-07-24T08:04:10;99257.34;;;23.88;67.93
13934;BME280;7039;52.168;9.866;2023-07-24T08:06:37;99255.56;;;23.74;68.94
13934;BME280;7039;52.168;9.866;2023-07-24T08:09:03;99272.09;;;23.69;69.43
13934;BME280;7039;52.168;9.866;2023-07-24T08:11:30;99264.88;;;23.63;70.28
13934;BME280;7039;52.168;9.866;2023-07-24T08:13:56;99271.69;;;23.08;70.82
13934;BME280;7039;52.168;9.866;2023-07-24T08:16:23;99275.22;;;22.49;72.04
13934;BME280;7039;52.168;9.866;2023-07-24T08:18:50;99285.63;;;22.50;73.49
13934;BME280;7039;52.168;9.866;2023-07-24T08:21:17;99291.16;;;22.49;72.83
13934;BME280;7039;52.168;9.866;2023-07-24T08:23:43;99292.22;;;22.84;72.54
13934;BME280;7039;52.168;9.866;2023-07-24T08:26:10;99278.13;;;22.84;72.45
13934;BME280;7039;52.168;9.866;2023-07-24T08:28:36;99289.38;;;22.86;72.55
13934;BME280;7039;52.168;9.866;2023-07-24T08:31:07;99294.91;;;22.69;71.91
13934;BME280;7039;52.168;9.866;2023-07-24T08:33:33;99283.78;;;22.96;70.76
13934;BME280;7039;52.168;9.866;2023-07-24T08:36:03;99293.63;;;22.65;71.30
13934;BME280;7039;52.168;9.866;2023-07-24T08:38:30;99299.69;;;22.74;72.06
13934;BME280;7039;52.168;9.866;2023-07-24T08:41:01;99293.41;;;22.82;72.25
13934;BME280;7039;52.168;9.866;2023-07-24T08:43:29;99281.16;;;22.81;72.07
13934;BME280;7039;52.168;9.866;2023-07-24T08:45:56;99296.91;;;23.12;71.64
13934;BME280;7039;52.168;9.866;2023-07-24T08:48:23;99283.09;;;22.72;71.73
13934;BME280;7039;52.168;9.866;2023-07-24T08:50:51;99305.72;;;22.68;72.92
13934;BME280;7039;52.168;9.866;2023-07-24T08:53:21;99288.41;;;22.87;72.60
13934;BME280;7039;52.168;9.866;2023-07-24T08:55:48;99297.16;;;23.17;72.28
13934;BME280;7039;52.168;9.866;2023-07-24T08:58:14;99285.69;;;23.53;71.07
13934;BME280;7039;52.168;9.866;2023-07-24T09:00:41;99283.47;;;23.78;70.01
13934;BME280;7039;52.168;9.866;2023-07-24T09:03:07;99289.44;;;23.22;71.30
13934;BME280;7039;52.168;9.866;2023-07-24T09:05:34;99286.41;;;23.68;70.67
13934;BME280;7039;52.168;9.866;2023-07-24T09:08:00;99288.69;;;23.28;70.89
13934;BME280;7039;52.168;9.866;2023-07-24T09:10:28;99290.53;;;23.28;71.38
13934;BME280;7039;52.168;9.866;2023-07-24T09:12:55;99280.50;;;23.08;70.33
13934;BME280;7039;52.168;9.866;2023-07-24T09:15:21;99300.63;;;23.32;70.98
13934;BME280;7039;52.168;9.866;2023-07-24T09:17:49;99309.44;;;23.18;70.54
13934;BME280;7039;52.168;9.866;2023-07-24T09:20:16;99301.94;;;23.07;71.01
13934;BME280;7039;52.168;9.866;2023-07-24T09:22:48;99291.94;;;23.09;71.41
13934;BME280;7039;52.168;9.866;2023-07-24T09:25:15;99285.47;;;23.33;69.63
13934;BME280;7039;52.168;9.866;2023-07-24T09:27:43;99288.81;;;23.20;70.57
13934;BME280;7039;52.168;9.866;2023-07-24T09:30:12;99297.41;;;23.22;71.18
13934;BME280;7039;52.168;9.866;2023-07-24T09:32:40;99293.78;;;23.45;70.63
13934;BME280;7039;52.168;9.866;2023-07-24T09:35:16;99293.19;;;23.28;70.42
13934;BME280;7039;52.168;9.866;2023-07-24T09:37:42;99297.81;;;23.41;70.30
13934;BME280;7039;52.168;9.866;2023-07-24T09:40:10;99299.53;;;23.70;69.69
13934;BME280;7039;52.168;9.866;2023-07-24T09:42:38;99301.81;;;23.73;69.49
13934;BME280;7039;52.168;9.866;2023-07-24T09:45:08;99305.22;;;24.66;68.12
13934;BME280;7039;52.168;9.866;2023-07-24T09:47:34;99281.56;;;24.22;66.90
13934;BME280;7039;52.168;9.866;2023-07-24T09:50:03;99287.97;;;24.34;67.77
13934;BME280;7039;52.168;9.866;2023-07-24T09:52:30;99283.31;;;24.71;66.63
13934;BME280;7039;52.168;9.866;2023-07-24T09:55:02;99290.06;;;24.67;65.64
13934;BME280;7039;52.168;9.866;2023-07-24T09:57:32;99292.34;;;24.70;65.39
13934;BME280;7039;52.168;9.866;2023-07-24T09:59:59;99284.34;;;24.42;65.21
13934;BME280;7039;52.168;9.866;2023-07-24T10:02:28;99284.03;;;24.23;65.33
13934;BME280;7039;52.168;9.866;2023-07-24T10:04:55;99284.34;;;24.13;66.04
13934;BME280;7039;52.168;9.866;2023-07-24T10:07:22;99289.00;;;24.33;66.24
13934;BME280;7039;52.168;9.866;2023-07-24T10:09:49;99296.72;;;24.21;66.03
13934;BME280;7039;52.168;9.866;2023-07-24T10:12:16;99292.03;;;24.51;65.63
13934;BME280;7039;52.168;9.866;2023-07-24T10:14:44;99290.06;;;24.38;65.08
13934;BME280;7039;52.168;9.866;2023-07-24T10:17:11;99286.59;;;24.38;65.56
13934;BME280;7039;52.168;9.866;2023-07-24T10:19:40;99270.53;;;24.31;64.28
13934;BME280;7039;52.168;9.866;2023-07-24T10:22:09;99260.22;;;24.50;64.50
13934;BME280;7039;52.168;9.866;2023-07-24T10:24:35;99259.66;;;24.61;64.67
13934;BME280;7039;52.168;9.866;2023-07-24T10:27:03;99253.94;;;24.57;63.80
13934;BME280;7039;52.168;9.866;2023-07-24T10:29:34;99254.50;;;25.01;63.11
13934;BME280;7039;52.168;9.866;2023-07-24T10:32:00;99246.44;;;25.62;61.23
13934;BME280;7039;52.168;9.866;2023-07-24T10:34:36;99251.16;;;25.60;61.50
13934;BME280;7039;52.168;9.866;2023-07-24T10:37:06;99242.09;;;25.61;61.26
13934;BME280;7039;52.168;9.866;2023-07-24T10:39:37;99227.69;;;25.23;60.78
13934;BME280;7039;52.168;9.866;2023-07-24T10:42:05;99221.97;;;25.66;60.09
13934;BME280;7039;52.168;9.866;2023-07-24T10:44:32;99222.94;;;25.18;60.51
13934;BME280;7039;52.168;9.866;2023-07-24T10:46:58;99216.66;;;25.39;60.86
13934;BME280;7039;52.168;9.866;2023-07-24T10:49:25;99216.03;;;25.30;60.83
13934;BME280;7039;52.168;9.866;2023-07-24T10:51:55;99200.75;;;25.04;60.65
13934;BME280;7039;52.168;9.866;2023-07-24T10:54:23;99206.72;;;25.13;60.97
13934;BME280;7039;52.168;9.866;2023-07-24T10:56:49;99214.38;;;25.69;60.82
13934;BME280;7039;52.168;9.866;2023-07-24T10:59:16;99210.09;;;25.48;61.51
13934;BME280;7039;52.168;9.866;2023-07-24T11:01:42;99222.44;;;25.96;60.58
13934;BME280;7039;52.168;9.866;2023-07-24T11:04:09;99215.22;;;25.70;61.09
13934;BME280;7039;52.168;9.866;2023-07-24T11:06:37;99234.09;;;26.15;60.17
13934;BME280;7039;52.168;9.866;2023-07-24T11:09:04;99222.19;;;25.71;60.79
13934;BME280;7039;52.168;9.866;2023-07-24T11:11:32;99221.78;;;25.67;59.42
13934;BME280;7039;52.168;9.866;2023-07-24T11:14:00;99224.25;;;25.75;59.81
13934;BME280;7039;52.168;9.866;2023-07-24T11:16:27;99222.19;;;26.04;58.42
13934;BME280;7039;52.168;9.866;2023-07-24T11:18:55;99229.59;;;25.89;56.90
13934;BME280;7039;52.168;9.866;2023-07-24T11:21:22;99228.53;;;25.50;57.39
13934;BME280;7039;52.168;9.866;2023-07-24T11:23:50;99221.16;;;25.52;57.80
13934;BME280;7039;52.168;9.866;2023-07-24T11:26:18;99221.59;;;25.95;58.11
13934;BME280;7039;52.168;9.866;2023-07-24T11:28:46;99207.56;;;25.87;58.23
13934;BME280;7039;52.168;9.866;2023-07-24T11:31:13;99209.22;;;25.41;58.34
13934;BME280;7039;52.168;9.866;2023-07-24T11:33:40;99216.41;;;25.34;59.43
13934;BME280;7039;52.168;9.866;2023-07-24T11:36:07;99217.47;;;26.06;57.16
13934;BME280;7039;52.168;9.866;2023-07-24T11:38:34;99224.47;;;26.07;56.11
13934;BME280;7039;52.168;9.866;2023-07-24T11:41:03;99230.81;;;26.13;55.68
13934;BME280;7039;52.168;9.866;2023-07-24T11:43:29;99211.28;;;25.79;56.60
13934;BME280;7039;52.168;9.866;2023-07-24T11:45:57;99207.81;;;26.12;56.05
13934;BME280;7039;52.168;9.866;2023-07-24T11:48:24;99202.50;;;27.02;55.44
13934;BME280;7039;52.168;9.866;2023-07-24T11:50:52;99208.28;;;26.54;54.32
13934;BME280;7039;52.168;9.866;2023-07-24T11:53:20;99190.38;;;26.54;54.39
13934;BME280;7039;52.168;9.866;2023-07-24T11:55:48;99207.13;;;26.30;53.93
13934;BME280;7039;52.168;9.866;2023-07-24T11:58:16;99189.16;;;26.50;53.16
13934;BME280;7039;52.168;9.866;2023-07-24T12:00:43;99180.63;;;26.28;53.47
13934;BME280;7039;52.168;9.866;2023-07-24T12:03:11;99181.72;;;26.65;53.54
13934;BME280;7039;52.168;9.866;2023-07-24T12:05:38;99184.81;;;27.01;52.50
13934;BME280;7039;52.168;9.866;2023-07-24T12:08:05;99176.84;;;26.94;52.47
13934;BME280;7039;52.168;9.866;2023-07-24T12:10:31;99169.22;;;26.53;53.44
13934;BME280;7039;52.168;9.866;2023-07-24T12:12:59;99171.53;;;26.87;52.66
13934;BME280;7039;52.168;9.866;2023-07-24T12:15:25;99171.81;;;26.73;53.13
13934;BME280;7039;52.168;9.866;2023-07-24T12:17:52;99163.88;;;26.53;52.37
13934;BME280;7039;52.168;9.866;2023-07-24T12:20:20;99155.50;;;26.81;52.66
13934;BME280;7039;52.168;9.866;2023-07-24T12:22:47;99180.31;;;26.56;53.27
13934;BME280;7039;52.168;9.866;2023-07-24T12:25:13;99160.56;;;26.96;53.27
13934;BME280;7039;52.168;9.866;2023-07-24T12:27:40;99152.34;;;26.91;53.21
13934;BME280;7039;52.168;9.866;2023-07-24T12:30:07;99158.53;;;26.53;57.38
13934;BME280;7039;52.168;9.866;2023-07-24T12:32:34;99156.41;;;26.61;57.79
13934;BME280;7039;52.168;9.866;2023-07-24T12:35:00;99167.31;;;26.08;60.37
13934;BME280;7039;52.168;9.866;2023-07-24T12:37:28;99161.16;;;26.01;59.45
13934;BME280;7039;52.168;9.866;2023-07-24T12:39:55;99155.41;;;25.97;60.72
13934;BME280;7039;52.168;9.866;2023-07-24T12:42:21;99165.91;;;25.66;61.07
13934;BME280;7039;52.168;9.866;2023-07-24T12:44:48;99184.19;;;25.29;62.79
13934;BME280;7039;52.168;9.866;2023-07-24T12:47:15;99179.88;;;25.21;63.79
13934;BME280;7039;52.168;9.866;2023-07-24T12:49:41;99161.78;;;25.36;62.86
13934;BME280;7039;52.168;9.866;2023-07-24T12:52:08;99166.06;;;25.11;64.28
13934;BME280;7039;52.168;9.866;2023-07-24T12:54:35;99170.09;;;24.87;65.09
13934;BME280;7039;52.168;9.866;2023-07-24T12:57:05;99164.47;;;24.48;65.48
13934;BME280;7039;52.168;9.866;2023-07-24T12:59:31;99163.69;;;24.20;66.25
13934;BME280;7039;52.168;9.866;2023-07-24T13:01:58;99168.03;;;24.27;67.51
13934;BME280;7039;52.168;9.866;2023-07-24T13:04:24;99171.78;;;24.39;67.46
13934;BME280;7039;52.168;9.866;2023-07-24T13:06:51;99180.50;;;24.62;67.03
13934;BME280;7039;52.168;9.866;2023-07-24T13:09:18;99172.81;;;25.07;66.25